createdAt,value
2022-12-12T00:00:43.971Z,95.26
2022-12-12T00:03:11.441Z,95.16
2022-12-12T00:05:39.005Z,94.98
2022-12-12T00:08:06.409Z,94.97
2022-12-12T00:10:34.974Z,95.03
2022-12-12T00:13:02.625Z,95.04
2022-12-12T00:15:29.714Z,95.16
2022-12-12T00:17:56.675Z,94.99
2022-12-12T00:20:23.653Z,94.82
2022-12-12T00:22:50.660Z,95.00
2022-12-12T00:25:17.741Z,95.15
2022-12-12T00:27:44.777Z,94.87
2022-12-12T00:30:12.250Z,95.03
2022-12-12T00:32:39.188Z,94.93
2022-12-12T00:35:06.862Z,95.02
2022-12-12T00:37:33.914Z,95.05
2022-12-12T00:40:01.016Z,95.28
2022-12-12T00:42:28.486Z,95.24
2022-12-12T00:44:55.487Z,94.96
2022-12-12T00:47:22.492Z,94.81
2022-12-12T00:49:49.470Z,94.81
2022-12-12T00:52:16.663Z,94.74
2022-12-12T00:54:43.596Z,94.50
2022-12-12T00:57:10.540Z,94.44
2022-12-12T00:59:37.489Z,94.36
2022-12-12T01:02:04.626Z,94.10
2022-12-12T01:04:31.656Z,94.02
2022-12-12T01:06:58.606Z,94.05
2022-12-12T01:09:25.795Z,94.20
2022-12-12T01:11:52.738Z,94.12
2022-12-12T01:14:19.698Z,94.17
2022-12-12T01:16:46.670Z,93.92
2022-12-12T01:19:13.813Z,94.22
2022-12-12T01:21:40.752Z,94.06
2022-12-12T01:24:07.770Z,93.98
2022-12-12T01:26:34.752Z,94.00
2022-12-12T01:29:02.191Z,93.80
2022-12-12T01:31:29.177Z,93.84
2022-12-12T01:33:56.266Z,93.65
2022-12-12T01:36:24.035Z,93.80
2022-12-12T01:38:54.257Z,93.64
2022-12-12T01:41:21.537Z,93.57
2022-12-12T01:43:49.658Z,93.80
2022-12-12T01:46:33.117Z,93.76
2022-12-12T01:49:26.177Z,93.66
2022-12-12T01:51:58.767Z,93.70
2022-12-12T01:54:34.220Z,93.77
2022-12-12T01:57:07.138Z,93.58
2022-12-12T01:59:35.379Z,93.70
2022-12-12T02:02:02.681Z,93.85
2022-12-12T02:04:29.764Z,93.83
2022-12-12T02:06:57.640Z,93.69
2022-12-12T02:09:25.993Z,93.80
2022-12-12T02:11:57.038Z,93.59
2022-12-12T02:14:39.322Z,93.58
2022-12-12T02:17:42.947Z,93.72
2022-12-12T02:20:40.567Z,93.84
2022-12-12T02:24:02.575Z,93.44
2022-12-12T02:27:16.814Z,93.67
2022-12-12T02:30:07.508Z,93.71
2022-12-12T02:33:14.726Z,93.56
2022-12-12T02:35:51.550Z,93.49
2022-12-12T02:38:51.438Z,93.66
2022-12-12T02:41:42.473Z,93.47
2022-12-12T02:44:26.592Z,93.53
2022-12-12T02:47:15.722Z,93.36
2022-12-12T02:50:06.296Z,93.46
2022-12-12T02:52:34.226Z,93.33
2022-12-12T02:55:01.158Z,93.08
2022-12-12T02:57:28.574Z,93.38
2022-12-12T03:00:08.332Z,93.38
2022-12-12T03:03:21.390Z,93.25
2022-12-12T03:06:42.287Z,93.42
2022-12-12T03:09:30.742Z,93.20
2022-12-12T03:12:06.150Z,93.33
2022-12-12T03:15:08.547Z,93.30
2022-12-12T03:17:54.596Z,93.32
2022-12-12T03:20:43.227Z,93.32
2022-12-12T03:23:16.262Z,93.29
2022-12-12T03:26:02.101Z,93.35
2022-12-12T03:28:43.900Z,93.49
2022-12-12T03:31:13.000Z,93.41
2022-12-12T03:33:53.092Z,93.20
2022-12-12T03:36:32.476Z,93.43
2022-12-12T03:39:13.393Z,93.22
2022-12-12T03:41:50.235Z,93.30
2022-12-12T03:44:25.136Z,93.25
2022-12-12T03:47:05.640Z,93.33
2022-12-12T03:49:48.632Z,93.34
2022-12-12T03:52:30.448Z,93.23
2022-12-12T03:55:08.406Z,93.13
2022-12-12T03:57:45.773Z,93.58
2022-12-12T04:00:15.143Z,93.38
2022-12-12T04:03:15.567Z,93.43
2022-12-12T04:06:22.002Z,93.29
2022-12-12T04:09:08.205Z,93.45
2022-12-12T04:12:01.368Z,93.49
2022-12-12T04:14:53.192Z,93.40
2022-12-12T04:17:37.629Z,93.43
2022-12-12T04:20:42.516Z,93.39
2022-12-12T04:23:41.766Z,93.46
2022-12-12T04:26:39.969Z,93.63
2022-12-12T04:29:11.880Z,93.65
2022-12-12T04:32:03.436Z,93.52
2022-12-12T04:34:44.244Z,93.59
2022-12-12T04:37:18.484Z,93.51
2022-12-12T04:39:51.078Z,93.72
2022-12-12T04:42:23.746Z,93.56
2022-12-12T04:44:54.275Z,93.57
2022-12-12T04:47:23.758Z,93.67
2022-12-12T04:49:52.467Z,93.70
2022-12-12T04:52:21.285Z,93.70
2022-12-12T04:55:05.540Z,93.70
2022-12-12T04:58:02.200Z,93.76
2022-12-12T05:00:43.995Z,93.74
2022-12-12T05:03:20.074Z,93.69
2022-12-12T05:06:11.608Z,93.75
2022-12-12T05:08:45.942Z,93.85
2022-12-12T05:11:13.898Z,93.69
2022-12-12T05:13:43.066Z,93.76
2022-12-12T05:16:37.702Z,93.77
2022-12-12T05:19:05.142Z,93.86
2022-12-12T05:21:32.198Z,93.86
2022-12-12T05:23:59.130Z,93.86
2022-12-12T05:26:29.685Z,93.82
2022-12-12T05:28:59.926Z,93.80
2022-12-12T05:31:30.697Z,93.81
2022-12-12T05:33:57.791Z,93.88
2022-12-12T05:36:24.765Z,93.80
2022-12-12T05:38:51.693Z,93.94
2022-12-12T05:41:18.648Z,93.83
2022-12-12T05:43:45.581Z,93.75
2022-12-12T05:46:12.632Z,94.03
2022-12-12T05:48:39.677Z,93.89
2022-12-12T05:51:06.652Z,93.88
2022-12-12T05:53:42.065Z,93.89
2022-12-12T05:56:11.342Z,93.95
2022-12-12T05:58:40.467Z,94.00
2022-12-12T06:01:08.340Z,94.04
2022-12-12T06:03:35.860Z,94.17
2022-12-12T06:06:03.831Z,94.10
2022-12-12T06:08:30.867Z,94.04
2022-12-12T06:10:57.864Z,94.29
2022-12-12T06:13:24.843Z,94.08
2022-12-12T06:15:51.812Z,94.13
2022-12-12T06:18:18.958Z,94.09
2022-12-12T06:20:45.929Z,94.17
2022-12-12T06:23:12.972Z,94.05
2022-12-12T06:25:40.006Z,94.32
2022-12-12T06:28:07.254Z,94.15
2022-12-12T06:30:34.496Z,94.29
2022-12-12T06:33:01.527Z,94.23
2022-12-12T06:35:28.498Z,94.13
2022-12-12T06:37:55.444Z,94.20
2022-12-12T06:40:22.394Z,94.24
2022-12-12T06:42:49.416Z,94.23
2022-12-12T06:45:17.185Z,94.13
2022-12-12T06:47:44.302Z,94.43
2022-12-12T06:50:11.800Z,94.10
2022-12-12T06:52:38.785Z,94.10
2022-12-12T06:55:06.380Z,94.00
2022-12-12T06:57:36.163Z,94.10
2022-12-12T07:00:06.411Z,94.05
2022-12-12T07:02:33.397Z,94.01
2022-12-12T07:05:00.499Z,94.03
2022-12-12T07:07:27.418Z,94.19
2022-12-12T07:09:54.333Z,94.08
2022-12-12T07:12:21.293Z,93.93
2022-12-12T07:14:48.255Z,94.21
2022-12-12T07:17:15.200Z,94.07
2022-12-12T07:19:42.295Z,94.21
2022-12-12T07:22:10.385Z,94.08
2022-12-12T07:24:38.046Z,94.27
2022-12-12T07:27:06.351Z,93.97
2022-12-12T07:29:33.735Z,94.29
2022-12-12T07:32:00.770Z,94.35
2022-12-12T07:34:29.895Z,94.22
2022-12-12T07:37:02.529Z,94.14
2022-12-12T07:39:32.557Z,94.26
2022-12-12T07:41:59.799Z,94.46
2022-12-12T07:44:26.880Z,94.24
2022-12-12T07:46:53.915Z,94.20
2022-12-12T07:49:20.864Z,94.18
2022-12-12T07:51:49.359Z,94.26
2022-12-12T07:54:17.161Z,94.37
2022-12-12T07:56:44.139Z,94.19
2022-12-12T07:59:11.918Z,94.25
2022-12-12T08:01:39.679Z,94.20
2022-12-12T08:04:06.702Z,94.30
2022-12-12T08:06:33.750Z,94.32
2022-12-12T08:09:00.687Z,94.61
2022-12-12T08:11:27.825Z,94.46
2022-12-12T08:13:54.977Z,94.55
2022-12-12T08:16:27.851Z,94.58
2022-12-12T08:18:57.526Z,94.57
2022-12-12T08:21:26.799Z,94.60
2022-12-12T08:24:02.170Z,94.55
2022-12-12T08:26:30.718Z,94.80
2022-12-12T08:28:58.662Z,94.84
2022-12-12T08:31:26.186Z,94.84
2022-12-12T08:33:53.656Z,94.89
2022-12-12T08:36:24.534Z,95.02
2022-12-12T08:38:52.402Z,94.87
2022-12-12T08:41:20.022Z,94.93
2022-12-12T08:43:47.438Z,95.08
2022-12-12T08:46:18.036Z,94.83
2022-12-12T08:48:46.465Z,94.91
2022-12-12T08:51:14.752Z,94.83
2022-12-12T08:53:45.708Z,94.99
2022-12-12T08:56:13.485Z,95.18
2022-12-12T08:58:40.741Z,95.05
2022-12-12T09:01:21.453Z,95.18
2022-12-12T09:03:49.010Z,95.26
2022-12-12T09:06:17.131Z,95.25
2022-12-12T09:08:46.178Z,95.23
2022-12-12T09:11:14.082Z,95.28
2022-12-12T09:13:41.530Z,95.32
2022-12-12T09:16:10.904Z,95.40
2022-12-12T09:18:44.606Z,95.35
2022-12-12T09:21:15.030Z,95.48
2022-12-12T09:23:42.050Z,95.46
2022-12-12T09:26:10.237Z,95.32
2022-12-12T09:28:37.660Z,95.39
2022-12-12T09:31:10.219Z,95.63
2022-12-12T09:33:38.093Z,95.38
2022-12-12T09:36:07.889Z,95.63
2022-12-12T09:38:35.533Z,95.79
2022-12-12T09:41:10.332Z,95.64
2022-12-12T09:44:06.274Z,95.78
2022-12-12T09:46:47.107Z,95.79
2022-12-12T09:49:47.735Z,95.69
2022-12-12T09:52:31.291Z,95.47
2022-12-12T09:55:17.149Z,95.41
2022-12-12T09:57:56.279Z,95.55
2022-12-12T10:00:23.314Z,95.34
2022-12-12T10:03:19.175Z,95.39
2022-12-12T10:09:33.940Z,95.32
2022-12-12T10:12:08.002Z,95.54
2022-12-12T10:14:52.745Z,95.59
2022-12-12T10:17:37.301Z,96.03
2022-12-12T10:20:32.492Z,96.01
2022-12-12T10:23:15.806Z,96.41
2022-12-12T10:25:56.374Z,96.47
2022-12-12T10:28:30.938Z,96.32
2022-12-12T10:31:25.631Z,96.51
2022-12-12T10:34:15.767Z,96.54
2022-12-12T10:37:22.987Z,96.68
2022-12-12T10:40:14.165Z,97.09
2022-12-12T10:43:14.815Z,97.25
2022-12-12T10:46:09.545Z,96.93
2022-12-12T10:48:36.782Z,97.12
2022-12-12T10:51:07.977Z,97.34
2022-12-12T10:53:35.365Z,97.44
2022-12-12T10:56:07.708Z,97.46
2022-12-12T10:58:51.222Z,97.46
2022-12-12T11:01:38.383Z,97.27
2022-12-12T11:04:08.953Z,97.44
2022-12-12T11:06:51.556Z,97.74
2022-12-12T11:09:28.305Z,97.81
2022-12-12T11:12:04.400Z,97.70
2022-12-12T11:14:52.045Z,97.85
2022-12-12T11:17:25.773Z,97.92
2022-12-12T11:19:57.230Z,98.15
2022-12-12T11:22:25.919Z,97.85
2022-12-12T11:24:54.529Z,98.04
2022-12-12T11:27:31.285Z,98.30
2022-12-12T11:30:06.055Z,98.36
2022-12-12T11:32:44.531Z,98.51
2022-12-12T11:35:45.723Z,98.57
2022-12-12T11:38:22.177Z,98.61
2022-12-12T11:41:05.760Z,98.22
2022-12-12T11:43:37.847Z,98.35
2022-12-12T11:46:16.041Z,97.85
2022-12-12T11:48:51.619Z,98.32
2022-12-12T11:51:40.877Z,98.58
2022-12-12T11:54:34.621Z,98.53
2022-12-12T11:57:15.073Z,97.98
2022-12-12T12:00:11.406Z,98.72
2022-12-12T12:03:09.046Z,98.73
2022-12-12T12:06:35.824Z,98.92
2022-12-12T12:09:41.368Z,98.96
2022-12-12T12:12:20.997Z,99.01
2022-12-12T12:14:57.042Z,98.61
2022-12-12T12:17:32.559Z,98.76
2022-12-12T12:20:33.595Z,98.62
2022-12-12T12:23:42.530Z,98.71
2022-12-12T12:26:52.677Z,98.69
2022-12-12T12:30:16.135Z,98.26
2022-12-12T12:33:26.165Z,98.34
2022-12-12T12:36:20.855Z,98.26
2022-12-12T12:39:24.111Z,98.35
2022-12-12T12:42:26.136Z,98.19
2022-12-12T12:45:15.511Z,98.40
2022-12-12T12:47:53.609Z,98.41
2022-12-12T12:50:34.494Z,98.22
2022-12-12T12:53:59.150Z,98.21
2022-12-12T12:56:34.005Z,97.77
2022-12-12T12:59:14.983Z,97.77
2022-12-12T13:01:46.567Z,97.73
2022-12-12T13:04:41.844Z,97.69
2022-12-12T13:07:49.790Z,97.54
2022-12-12T13:10:28.061Z,97.33
2022-12-12T13:13:14.912Z,97.19
2022-12-12T13:15:58.649Z,97.48
2022-12-12T13:18:37.059Z,97.15
2022-12-12T13:21:35.632Z,97.12
2022-12-12T13:24:12.598Z,97.41
2022-12-12T13:27:03.205Z,96.88
2022-12-12T13:29:50.702Z,97.39
2022-12-12T13:32:50.535Z,97.42
2022-12-12T13:35:51.096Z,97.22
2022-12-12T13:38:29.855Z,97.35
2022-12-12T13:40:59.197Z,97.10
2022-12-12T13:43:34.330Z,97.39
2022-12-12T13:46:23.309Z,97.56
2022-12-12T13:49:24.299Z,98.00
2022-12-12T13:51:51.430Z,98.34
2022-12-12T13:54:18.248Z,98.68
2022-12-12T13:56:57.249Z,99.22
2022-12-12T13:59:26.684Z,99.56
2022-12-12T14:02:02.105Z,99.50
2022-12-12T14:04:41.525Z,99.76
2022-12-12T14:07:21.676Z,99.89
2022-12-12T14:09:52.660Z,99.52
2022-12-12T14:12:33.477Z,99.60
2022-12-12T14:15:18.341Z,99.31
2022-12-12T14:17:55.718Z,98.83
2022-12-12T14:20:33.966Z,98.35
2022-12-12T14:23:12.670Z,98.68
2022-12-12T14:25:41.523Z,97.96
2022-12-12T14:28:30.802Z,98.09
2022-12-12T14:31:16.948Z,97.75
2022-12-12T14:33:59.753Z,98.02
2022-12-12T14:37:00.803Z,98.12
2022-12-12T14:40:00.889Z,98.16
2022-12-12T14:43:19.939Z,98.09
2022-12-12T14:45:53.692Z,97.87
2022-12-12T14:48:28.093Z,97.88
2022-12-12T14:51:34.595Z,97.90
2022-12-12T14:54:03.988Z,97.63
2022-12-12T14:56:53.015Z,97.86
2022-12-12T14:59:39.105Z,97.69
2022-12-12T15:02:38.923Z,97.74
2022-12-12T15:05:08.204Z,97.49
2022-12-12T15:07:40.832Z,97.14
2022-12-12T15:10:27.438Z,97.12
2022-12-12T15:12:54.504Z,97.13
2022-12-12T15:15:32.013Z,96.97
2022-12-12T15:18:00.882Z,96.65
2022-12-12T15:20:32.333Z,96.83
2022-12-12T15:23:02.855Z,96.89
2022-12-12T15:25:55.196Z,96.60
2022-12-12T15:28:24.826Z,96.76
2022-12-12T15:30:53.519Z,96.68
2022-12-12T15:33:26.978Z,96.52
2022-12-12T15:36:02.177Z,96.35
2022-12-12T15:38:30.062Z,96.26
2022-12-12T15:41:06.634Z,95.85
2022-12-12T15:43:38.837Z,95.94
2022-12-12T15:46:16.102Z,95.67
2022-12-12T15:48:45.174Z,95.69
2022-12-12T15:51:14.898Z,95.66
2022-12-12T15:53:52.337Z,95.46
2022-12-12T15:56:25.107Z,95.59
2022-12-12T15:59:21.212Z,95.46
2022-12-12T16:01:48.240Z,95.64
2022-12-12T16:04:15.114Z,95.64
2022-12-12T16:06:48.261Z,95.58
2022-12-12T16:09:22.452Z,95.61
2022-12-12T16:11:52.919Z,95.38
2022-12-12T16:14:24.667Z,95.55
2022-12-12T16:17:20.772Z,95.33
2022-12-12T16:19:53.763Z,95.39
2022-12-12T16:22:47.119Z,95.36
2022-12-12T16:25:32.392Z,95.18
2022-12-12T16:28:08.416Z,95.09
2022-12-12T16:30:37.448Z,94.97
2022-12-12T16:33:30.724Z,94.98
2022-12-12T16:36:00.703Z,94.91
2022-12-12T16:38:29.637Z,94.94
2022-12-12T16:41:00.992Z,94.84
2022-12-12T16:43:28.538Z,94.86
2022-12-12T16:45:56.934Z,94.81
2022-12-12T16:48:36.748Z,94.63
2022-12-12T16:51:09.164Z,94.74
2022-12-12T16:53:36.983Z,94.84
2022-12-12T16:56:04.739Z,94.75
2022-12-12T16:58:32.672Z,94.60
2022-12-12T17:01:01.584Z,94.58
2022-12-12T17:03:29.898Z,94.40
2022-12-12T17:05:56.844Z,94.42
2022-12-12T17:08:23.851Z,94.34
2022-12-12T17:11:10.094Z,94.42
2022-12-12T17:13:46.095Z,94.47
2022-12-12T17:16:13.386Z,94.38
2022-12-12T17:18:40.406Z,94.16
2022-12-12T17:21:07.376Z,94.33
2022-12-12T17:23:34.326Z,94.09
2022-12-12T17:26:04.771Z,94.21
2022-12-12T17:28:33.961Z,94.27
2022-12-12T17:31:01.334Z,94.12
2022-12-12T17:33:28.731Z,94.18
2022-12-12T17:36:05.482Z,94.13
2022-12-12T17:38:33.620Z,94.06
2022-12-12T17:41:08.886Z,94.10
2022-12-12T17:43:37.430Z,94.13
2022-12-12T17:46:14.225Z,94.01
2022-12-12T17:48:46.542Z,93.84
2022-12-12T17:51:17.797Z,93.82
2022-12-12T17:53:44.783Z,93.81
2022-12-12T17:56:18.111Z,93.90
2022-12-12T17:58:47.610Z,93.92
2022-12-12T18:01:21.676Z,93.73
2022-12-12T18:03:49.503Z,93.58
2022-12-12T18:06:18.669Z,93.74
2022-12-12T18:08:46.883Z,93.52
2022-12-12T18:11:19.139Z,93.58
2022-12-12T18:13:50.250Z,93.50
2022-12-12T18:16:18.277Z,93.49
2022-12-12T18:18:45.474Z,93.51
2022-12-12T18:21:42.904Z,93.42
2022-12-12T18:24:04.274Z,93.40
2022-12-12T18:26:31.345Z,93.54
2022-12-12T18:29:06.934Z,93.40
2022-12-12T18:31:35.014Z,93.54
2022-12-12T18:34:02.303Z,93.17
2022-12-12T18:36:30.865Z,93.24
2022-12-12T18:39:01.776Z,93.36
2022-12-12T18:41:28.968Z,93.22
2022-12-12T18:43:56.093Z,93.36
2022-12-12T18:46:27.686Z,93.35
2022-12-12T18:48:54.627Z,93.18
2022-12-12T18:51:25.033Z,93.25
2022-12-12T18:53:54.481Z,93.28
2022-12-12T18:56:25.684Z,93.20
2022-12-12T18:58:54.317Z,93.13
2022-12-12T19:01:25.827Z,93.16
2022-12-12T19:03:56.656Z,93.15
2022-12-12T19:06:33.841Z,93.05
2022-12-12T19:09:17.504Z,93.08
2022-12-12T19:11:45.626Z,93.08
2022-12-12T19:14:15.065Z,92.97
2022-12-12T19:16:43.961Z,93.21
2022-12-12T19:19:12.041Z,93.33
2022-12-12T19:21:40.780Z,92.90
2022-12-12T19:24:09.254Z,93.04
2022-12-12T19:26:37.250Z,92.93
2022-12-12T19:29:11.977Z,93.02
2022-12-12T19:31:39.227Z,92.94
2022-12-12T19:34:07.948Z,92.75
2022-12-12T19:36:35.882Z,92.78
2022-12-12T19:39:06.138Z,92.89
2022-12-12T19:41:33.959Z,92.56
2022-12-12T19:44:02.726Z,92.87
2022-12-12T19:46:31.524Z,92.71
2022-12-12T19:49:01.939Z,92.77
2022-12-12T19:51:35.958Z,92.66
2022-12-12T19:54:08.292Z,92.78
2022-12-12T19:56:38.618Z,92.63
2022-12-12T19:59:05.897Z,92.68
2022-12-12T20:01:35.946Z,92.81
2022-12-12T20:04:22.125Z,92.71
2022-12-12T20:06:50.334Z,92.54
2022-12-12T20:09:27.580Z,92.46
2022-12-12T20:11:56.787Z,92.53
2022-12-12T20:14:31.461Z,92.44
2022-12-12T20:16:59.892Z,92.35
2022-12-12T20:19:27.835Z,92.34
2022-12-12T20:22:03.820Z,92.42
2022-12-12T20:24:33.587Z,92.54
2022-12-12T20:27:05.670Z,91.98
2022-12-12T20:29:32.921Z,92.43
2022-12-12T20:32:01.203Z,92.54
2022-12-12T20:34:28.931Z,92.57
2022-12-12T20:36:56.277Z,92.53
2022-12-12T20:39:24.810Z,92.56
2022-12-12T20:41:53.568Z,92.48
2022-12-12T20:44:23.198Z,92.44
2022-12-12T20:46:50.164Z,92.34
2022-12-12T20:49:19.723Z,92.25
2022-12-12T20:51:56.391Z,92.22
2022-12-12T20:54:26.117Z,92.38
2022-12-12T20:56:55.817Z,92.15
2022-12-12T20:59:23.621Z,92.35
2022-12-12T21:01:51.019Z,92.18
2022-12-12T21:04:18.292Z,92.18
2022-12-12T21:06:49.701Z,92.20
2022-12-12T21:09:23.813Z,92.02
2022-12-12T21:11:54.868Z,92.20
2022-12-12T21:14:22.390Z,92.19
2022-12-12T21:16:49.649Z,92.28
2022-12-12T21:19:18.691Z,92.28
2022-12-12T21:21:46.488Z,92.08
2022-12-12T21:24:16.652Z,92.01
2022-12-12T21:26:44.499Z,92.13
2022-12-12T21:29:11.509Z,92.19
2022-12-12T21:31:48.129Z,91.94
2022-12-12T21:34:18.887Z,92.08
2022-12-12T21:36:45.892Z,92.00
2022-12-12T21:39:13.502Z,92.01
2022-12-12T21:41:43.656Z,92.24
2022-12-12T21:44:10.711Z,92.00
2022-12-12T21:46:41.593Z,92.01
2022-12-12T21:49:41.178Z,91.93
2022-12-12T21:52:13.757Z,91.97
2022-12-12T21:54:40.735Z,91.94
2022-12-12T21:57:08.001Z,92.04
2022-12-12T21:59:38.590Z,91.82
2022-12-12T22:02:07.011Z,92.07
2022-12-12T22:04:34.096Z,91.97
2022-12-12T22:07:01.041Z,91.89
2022-12-12T22:09:28.104Z,92.01
2022-12-12T22:12:03.961Z,91.64
2022-12-12T22:14:33.493Z,91.81
2022-12-12T22:17:02.864Z,91.83
2022-12-12T22:19:29.808Z,91.96
2022-12-12T22:21:56.753Z,92.23
2022-12-12T22:24:23.704Z,91.90
2022-12-12T22:26:50.757Z,91.72
2022-12-12T22:29:20.009Z,91.84
2022-12-12T22:31:49.843Z,91.78
2022-12-12T22:34:21.621Z,91.77
2022-12-12T22:36:48.814Z,91.75
2022-12-12T22:39:23.343Z,91.82
2022-12-12T22:41:50.803Z,91.46
2022-12-12T22:44:20.327Z,91.89
2022-12-12T22:46:50.619Z,92.00
2022-12-12T22:49:22.481Z,91.76
2022-12-12T22:51:49.956Z,91.73
2022-12-12T22:54:17.977Z,91.91
2022-12-12T22:56:45.356Z,91.91
2022-12-12T22:59:13.546Z,91.82
2022-12-12T23:01:41.829Z,91.95
2022-12-12T23:04:13.157Z,91.88
2022-12-12T23:06:40.991Z,91.95
2022-12-12T23:09:21.111Z,91.81
2022-12-12T23:11:49.495Z,91.54
2022-12-12T23:14:21.488Z,91.79
2022-12-12T23:16:50.279Z,91.87
2022-12-12T23:19:22.314Z,91.77
2022-12-12T23:21:49.701Z,91.82
2022-12-12T23:24:16.626Z,91.86
2022-12-12T23:26:44.362Z,91.91
2022-12-12T23:29:16.696Z,91.71
2022-12-12T23:31:44.353Z,91.78
2022-12-12T23:34:23.754Z,92.05
2022-12-12T23:36:53.676Z,91.75
2022-12-12T23:39:22.140Z,91.66
2022-12-12T23:41:49.446Z,91.79
2022-12-12T23:44:18.991Z,91.96
2022-12-12T23:46:46.488Z,91.75
2022-12-12T23:49:13.289Z,91.72
2022-12-12T23:51:52.526Z,91.52
2022-12-12T23:54:32.016Z,91.69
2022-12-12T23:57:00.096Z,91.69
2022-12-12T23:59:27.578Z,91.81
